createdAt,value
2022-08-29T00:02:00.136Z,91.90
2022-08-29T00:04:26.995Z,92.10
2022-08-29T00:06:54.520Z,92.00
2022-08-29T00:09:21.406Z,91.90
2022-08-29T00:11:48.241Z,92.00
2022-08-29T00:14:20.455Z,92.00
2022-08-29T00:16:50.694Z,91.70
2022-08-29T00:19:17.753Z,91.90
2022-08-29T00:21:44.856Z,91.90
2022-08-29T00:24:11.774Z,91.80
2022-08-29T00:26:38.746Z,91.60
2022-08-29T00:29:05.672Z,91.80
2022-08-29T00:31:32.729Z,91.90
2022-08-29T00:33:59.677Z,92.00
2022-08-29T00:36:27.012Z,92.00
2022-08-29T00:38:58.371Z,92.00
2022-08-29T00:41:25.919Z,91.90
2022-08-29T00:43:52.850Z,92.00
2022-08-29T00:46:41.618Z,92.10
2022-08-29T00:49:31.693Z,91.90
2022-08-29T00:52:01.959Z,92.00
2022-08-29T00:54:32.046Z,92.10
2022-08-29T00:56:59.278Z,92.10
2022-08-29T00:59:34.654Z,92.00
2022-08-29T01:02:05.124Z,92.00
2022-08-29T01:04:33.320Z,91.90
2022-08-29T01:07:00.983Z,91.80
2022-08-29T01:09:29.160Z,91.90
2022-08-29T01:12:15.045Z,91.80
2022-08-29T01:15:09.198Z,91.90
2022-08-29T01:17:44.266Z,92.00
2022-08-29T01:20:19.378Z,91.80
2022-08-29T01:23:19.403Z,91.80
2022-08-29T01:25:48.995Z,92.00
2022-08-29T01:28:23.333Z,92.00
2022-08-29T01:31:00.935Z,92.10
2022-08-29T01:33:56.880Z,92.10
2022-08-29T01:36:38.214Z,92.30
2022-08-29T01:39:06.506Z,92.10
2022-08-29T01:41:34.999Z,92.10
2022-08-29T01:44:08.675Z,92.20
2022-08-29T01:46:35.652Z,92.30
2022-08-29T01:49:05.275Z,92.40
2022-08-29T01:51:32.327Z,92.30
2022-08-29T01:56:34.835Z,92.40
2022-08-29T01:59:03.952Z,92.40
2022-08-29T02:01:34.189Z,92.50
2022-08-29T02:04:01.199Z,92.60
2022-08-29T02:06:28.339Z,92.60
2022-08-29T02:08:55.344Z,92.50
2022-08-29T02:11:23.430Z,92.50
2022-08-29T02:13:56.039Z,92.50
2022-08-29T02:16:24.890Z,92.60
2022-08-29T02:18:52.097Z,92.90
2022-08-29T02:21:22.438Z,92.90
2022-08-29T02:23:50.398Z,92.90
2022-08-29T02:26:19.690Z,92.70
2022-08-29T02:28:47.574Z,92.70
2022-08-29T02:31:16.874Z,92.70
2022-08-29T02:33:44.188Z,92.70
2022-08-29T02:36:11.097Z,92.80
2022-08-29T02:38:39.324Z,93.20
2022-08-29T02:41:09.283Z,93.00
2022-08-29T02:43:38.382Z,92.80
2022-08-29T02:46:05.602Z,93.20
2022-08-29T02:48:32.972Z,93.20
2022-08-29T02:50:59.957Z,93.20
2022-08-29T02:53:29.730Z,93.20
2022-08-29T02:55:56.864Z,93.30
2022-08-29T02:58:24.905Z,93.60
2022-08-29T03:00:52.371Z,93.50
2022-08-29T03:03:19.955Z,93.50
2022-08-29T03:05:48.010Z,93.60
2022-08-29T03:08:15.382Z,93.70
2022-08-29T03:10:43.459Z,93.80
2022-08-29T03:13:11.727Z,93.70
2022-08-29T03:15:38.804Z,93.70
2022-08-29T03:18:05.858Z,93.70
2022-08-29T03:20:35.840Z,93.80
2022-08-29T03:23:03.869Z,93.80
2022-08-29T03:25:31.267Z,93.80
2022-08-29T03:27:59.733Z,94.10
2022-08-29T03:30:28.008Z,94.00
2022-08-29T03:32:55.085Z,94.00
2022-08-29T03:35:22.656Z,94.20
2022-08-29T03:37:50.598Z,94.60
2022-08-29T03:40:19.350Z,94.20
2022-08-29T03:42:46.637Z,94.20
2022-08-29T03:45:16.261Z,94.00
2022-08-29T03:47:43.264Z,93.90
2022-08-29T03:50:13.025Z,94.10
2022-08-29T03:52:43.489Z,94.00
2022-08-29T03:55:11.529Z,94.10
2022-08-29T03:57:38.420Z,94.20
2022-08-29T04:00:13.816Z,94.40
2022-08-29T04:02:41.241Z,94.70
2022-08-29T04:05:08.901Z,94.70
2022-08-29T04:07:47.331Z,95.00
2022-08-29T04:10:31.765Z,95.20
2022-08-29T04:12:58.727Z,95.40
2022-08-29T04:15:26.803Z,95.30
2022-08-29T04:17:55.763Z,95.30
2022-08-29T04:20:27.656Z,95.50
2022-08-29T04:22:56.338Z,95.50
2022-08-29T04:25:25.194Z,95.40
2022-08-29T04:27:52.766Z,95.10
2022-08-29T04:30:22.872Z,95.00
2022-08-29T04:32:50.465Z,95.50
2022-08-29T04:35:17.963Z,95.40
2022-08-29T04:37:45.626Z,95.60
2022-08-29T04:40:17.065Z,95.60
2022-08-29T04:42:44.394Z,95.60
2022-08-29T04:45:16.584Z,95.70
2022-08-29T04:47:46.726Z,95.80
2022-08-29T04:50:18.345Z,95.60
2022-08-29T04:52:45.755Z,95.50
2022-08-29T04:55:13.725Z,95.70
2022-08-29T04:57:43.802Z,95.60
2022-08-29T05:00:16.264Z,95.60
2022-08-29T05:02:44.373Z,95.80
2022-08-29T05:05:13.982Z,95.90
2022-08-29T05:07:42.753Z,96.00
2022-08-29T05:10:17.328Z,96.10
2022-08-29T05:12:45.394Z,96.40
2022-08-29T05:15:13.369Z,96.10
2022-08-29T05:17:40.310Z,96.10
2022-08-29T05:20:08.232Z,96.20
2022-08-29T05:22:36.020Z,96.10
2022-08-29T05:25:05.062Z,96.30
2022-08-29T05:27:32.283Z,96.40
2022-08-29T05:29:59.063Z,96.40
2022-08-29T05:32:25.862Z,96.50
2022-08-29T05:34:52.718Z,96.50
2022-08-29T05:37:21.102Z,96.80
2022-08-29T05:39:49.900Z,99.20
2022-08-29T05:42:20.009Z,97.50
2022-08-29T05:44:47.029Z,97.40
2022-08-29T05:47:15.794Z,97.20
2022-08-29T05:49:44.324Z,97.30
2022-08-29T05:52:11.806Z,97.40
2022-08-29T05:54:40.830Z,97.50
2022-08-29T05:57:09.819Z,97.60
2022-08-29T05:59:38.778Z,97.70
2022-08-29T06:02:07.380Z,97.80
2022-08-29T06:04:34.762Z,97.90
2022-08-29T06:07:01.656Z,98.00
2022-08-29T06:09:28.901Z,97.90
2022-08-29T06:11:57.743Z,98.20
2022-08-29T06:14:25.102Z,98.50
2022-08-29T06:16:53.849Z,98.90
2022-08-29T06:19:20.825Z,99.00
2022-08-29T06:21:47.886Z,99.20
2022-08-29T06:24:15.204Z,99.10
2022-08-29T06:26:43.167Z,99.10
2022-08-29T06:29:10.420Z,98.80
2022-08-29T06:31:37.762Z,98.70
2022-08-29T06:34:06.876Z,98.80
2022-08-29T06:36:37.162Z,98.60
2022-08-29T06:39:08.739Z,98.80
2022-08-29T06:41:37.568Z,98.80
2022-08-29T06:44:04.539Z,98.80
2022-08-29T06:46:34.693Z,98.90
2022-08-29T06:49:04.659Z,98.80
2022-08-29T06:51:33.409Z,98.60
2022-08-29T06:54:07.113Z,98.60
2022-08-29T06:56:36.691Z,98.30
2022-08-29T06:59:05.541Z,99.20
2022-08-29T07:01:33.480Z,99.10
2022-08-29T07:04:01.295Z,99.30
2022-08-29T07:06:28.462Z,98.90
2022-08-29T07:08:56.536Z,99.30
2022-08-29T07:11:25.480Z,98.80
2022-08-29T07:13:52.351Z,98.60
2022-08-29T07:16:19.375Z,99.20
2022-08-29T07:18:47.369Z,98.80
2022-08-29T07:21:20.386Z,98.80
2022-08-29T07:23:48.499Z,98.80
2022-08-29T07:26:21.878Z,98.80
2022-08-29T07:28:54.078Z,98.20
2022-08-29T07:31:21.547Z,97.90
2022-08-29T07:33:49.288Z,98.10
2022-08-29T07:36:29.280Z,97.10
2022-08-29T07:38:56.064Z,96.50
2022-08-29T07:41:24.193Z,95.90
2022-08-29T07:43:51.091Z,96.20
2022-08-29T07:46:19.773Z,95.40
2022-08-29T07:48:47.098Z,94.60
2022-08-29T07:51:17.489Z,95.00
2022-08-29T07:53:44.627Z,94.60
2022-08-29T07:56:14.970Z,95.30
2022-08-29T07:58:42.738Z,94.80
2022-08-29T08:01:14.821Z,94.00
2022-08-29T08:03:50.172Z,93.40
2022-08-29T08:06:22.613Z,94.00
2022-08-29T08:08:50.107Z,93.90
2022-08-29T08:11:17.610Z,92.90
2022-08-29T08:13:44.751Z,92.60
2022-08-29T08:16:14.913Z,92.50
2022-08-29T08:18:43.912Z,92.40
2022-08-29T08:21:11.389Z,93.10
2022-08-29T08:23:38.772Z,93.30
2022-08-29T08:26:06.514Z,92.40
2022-08-29T08:28:34.050Z,93.30
2022-08-29T08:31:05.922Z,92.20
2022-08-29T08:33:35.196Z,91.90
2022-08-29T08:36:03.627Z,91.80
2022-08-29T08:38:31.565Z,91.10
2022-08-29T08:41:07.116Z,92.10
2022-08-29T08:43:43.195Z,90.90
2022-08-29T08:46:10.312Z,90.50
2022-08-29T08:48:40.092Z,90.30
2022-08-29T08:51:17.113Z,89.60
2022-08-29T08:53:47.197Z,88.90
2022-08-29T08:56:25.804Z,89.70
2022-08-29T08:59:06.592Z,88.70
2022-08-29T09:01:40.246Z,88.00
2022-08-29T09:04:27.119Z,87.40
2022-08-29T09:07:15.143Z,89.50
2022-08-29T09:10:01.985Z,87.20
2022-08-29T09:12:32.603Z,87.50
2022-08-29T09:14:59.364Z,85.60
2022-08-29T09:17:50.229Z,85.30
2022-08-29T09:20:22.312Z,86.50
2022-08-29T09:23:00.629Z,85.80
2022-08-29T09:25:30.204Z,84.70
2022-08-29T09:27:58.560Z,83.90
2022-08-29T09:30:28.815Z,83.10
2022-08-29T09:33:02.221Z,84.80
2022-08-29T09:35:42.591Z,83.20
2022-08-29T09:38:18.167Z,82.40
2022-08-29T09:41:00.479Z,82.90
2022-08-29T09:43:44.351Z,83.00
2022-08-29T09:46:11.352Z,83.80
2022-08-29T09:48:43.230Z,82.70
2022-08-29T09:51:21.722Z,83.80
2022-08-29T09:53:49.467Z,84.00
2022-08-29T09:56:24.041Z,81.70
2022-08-29T09:59:02.062Z,82.80
2022-08-29T10:01:32.349Z,81.70
2022-08-29T10:04:05.781Z,81.10
2022-08-29T10:06:44.295Z,81.40
2022-08-29T10:09:27.544Z,80.90
2022-08-29T10:12:08.268Z,80.80
2022-08-29T10:14:49.753Z,80.70
2022-08-29T10:17:44.965Z,79.10
2022-08-29T10:20:11.822Z,79.70
2022-08-29T10:22:57.693Z,81.10
2022-08-29T10:25:37.965Z,79.80
2022-08-29T10:28:16.308Z,79.20
2022-08-29T10:31:31.793Z,80.20
2022-08-29T10:34:09.025Z,76.90
2022-08-29T10:36:38.920Z,78.40
2022-08-29T10:39:13.533Z,78.70
2022-08-29T10:41:50.255Z,77.50
2022-08-29T10:44:29.633Z,77.40
2022-08-29T10:46:59.372Z,76.60
2022-08-29T10:49:40.759Z,75.40
2022-08-29T10:52:34.124Z,76.80
2022-08-29T10:55:13.019Z,78.70
2022-08-29T10:58:16.868Z,78.10
2022-08-29T11:01:23.395Z,77.80
2022-08-29T11:03:59.548Z,75.00
2022-08-29T11:06:31.865Z,75.90
2022-08-29T11:09:16.555Z,76.20
2022-08-29T11:12:00.045Z,77.30
2022-08-29T11:14:35.712Z,77.30
2022-08-29T11:17:05.639Z,75.50
2022-08-29T11:19:56.005Z,74.80
2022-08-29T11:22:28.611Z,76.40
2022-08-29T11:25:20.237Z,75.50
2022-08-29T11:28:16.457Z,74.10
2022-08-29T11:30:49.676Z,75.20
2022-08-29T11:33:44.106Z,74.40
2022-08-29T11:36:49.583Z,76.20
2022-08-29T11:39:55.032Z,75.70
2022-08-29T11:45:21.917Z,75.80
2022-08-29T11:47:48.630Z,74.50
2022-08-29T11:50:23.285Z,75.50
2022-08-29T11:53:04.176Z,74.50
2022-08-29T11:55:34.125Z,76.40
2022-08-29T11:58:09.834Z,74.60
2022-08-29T12:00:42.397Z,76.10
2022-08-29T12:03:36.165Z,75.60
2022-08-29T12:06:14.857Z,74.00
2022-08-29T12:09:05.364Z,75.00
2022-08-29T12:12:04.630Z,75.60
2022-08-29T12:14:39.233Z,76.30
2022-08-29T12:17:51.286Z,75.40
2022-08-29T12:20:29.883Z,75.30
2022-08-29T12:23:10.988Z,76.00
2022-08-29T12:26:20.992Z,77.10
2022-08-29T12:28:57.536Z,74.40
2022-08-29T12:32:18.168Z,75.40
2022-08-29T12:35:27.109Z,74.90
2022-08-29T12:38:12.621Z,76.30
2022-08-29T12:41:00.197Z,75.30
2022-08-29T12:43:42.871Z,74.00
2022-08-29T12:46:21.402Z,75.70
2022-08-29T12:48:57.507Z,75.10
2022-08-29T12:51:35.861Z,75.20
2022-08-29T12:54:02.968Z,74.70
2022-08-29T12:56:30.206Z,74.50
2022-08-29T12:59:00.299Z,75.50
2022-08-29T13:01:40.876Z,76.20
2022-08-29T13:04:10.629Z,74.80
2022-08-29T13:06:49.597Z,73.90
2022-08-29T13:09:30.229Z,73.80
2022-08-29T13:12:17.748Z,76.50
2022-08-29T13:15:00.488Z,75.90
2022-08-29T13:17:35.076Z,76.20
2022-08-29T13:20:43.135Z,75.60
2022-08-29T13:23:21.472Z,76.80
2022-08-29T13:25:53.090Z,75.00
2022-08-29T13:28:25.359Z,75.30
2022-08-29T13:31:16.189Z,76.60
2022-08-29T13:33:46.085Z,75.40
2022-08-29T13:36:45.156Z,75.30
2022-08-29T13:39:17.882Z,73.60
2022-08-29T13:41:51.102Z,75.00
2022-08-29T13:44:23.428Z,73.40
2022-08-29T13:46:52.404Z,75.00
2022-08-29T13:49:21.919Z,74.40
2022-08-29T13:51:48.824Z,75.90
2022-08-29T13:54:16.323Z,72.70
2022-08-29T13:56:45.728Z,75.50
2022-08-29T13:59:12.793Z,75.40
2022-08-29T14:04:38.044Z,75.70
2022-08-29T14:07:06.640Z,73.70
2022-08-29T14:09:39.286Z,75.40
2022-08-29T14:12:10.388Z,75.60
2022-08-29T14:14:37.477Z,75.90
2022-08-29T14:17:05.220Z,73.70
2022-08-29T14:19:32.768Z,73.70
2022-08-29T14:22:00.648Z,74.90
2022-08-29T14:24:31.176Z,75.60
2022-08-29T14:27:22.665Z,72.40
2022-08-29T14:33:04.908Z,71.70
2022-08-29T14:35:32.390Z,74.20
2022-08-29T14:38:22.945Z,73.00
2022-08-29T14:43:56.424Z,74.00
2022-08-29T14:46:37.353Z,72.60
2022-08-29T14:49:19.134Z,72.60
2022-08-29T14:51:57.578Z,72.00
2022-08-29T14:54:25.177Z,73.00
2022-08-29T14:56:52.339Z,73.00
2022-08-29T14:59:35.677Z,73.70
2022-08-29T15:02:27.084Z,73.50
2022-08-29T15:08:15.864Z,71.70
2022-08-29T15:10:44.452Z,70.60
2022-08-29T15:13:11.581Z,71.30
2022-08-29T15:15:38.504Z,72.50
2022-08-29T15:18:06.052Z,74.10
2022-08-29T15:20:37.288Z,70.50
2022-08-29T15:23:05.147Z,71.00
2022-08-29T15:25:32.792Z,71.80
2022-08-29T15:28:00.076Z,71.10
2022-08-29T15:30:27.646Z,72.40
2022-08-29T15:32:55.769Z,71.60
2022-08-29T15:35:23.004Z,71.60
2022-08-29T15:37:50.178Z,72.60
2022-08-29T15:40:17.577Z,72.10
2022-08-29T15:42:45.961Z,73.20
2022-08-29T15:45:13.220Z,74.20
2022-08-29T15:47:46.155Z,74.20
2022-08-29T15:50:13.940Z,72.90
2022-08-29T15:52:40.966Z,72.30
2022-08-29T15:55:08.559Z,73.40
2022-08-29T15:57:39.562Z,71.90
2022-08-29T16:00:21.511Z,71.20
2022-08-29T16:02:56.889Z,71.10
2022-08-29T16:05:24.036Z,71.00
2022-08-29T16:07:51.259Z,71.60
2022-08-29T16:10:18.284Z,73.20
2022-08-29T16:12:47.197Z,73.40
2022-08-29T16:15:16.757Z,72.60
2022-08-29T16:17:45.258Z,72.90
2022-08-29T16:20:12.294Z,71.50
2022-08-29T16:22:40.623Z,71.30
2022-08-29T16:25:13.429Z,71.50
2022-08-29T16:27:41.553Z,70.70
2022-08-29T16:30:10.605Z,71.20
2022-08-29T16:32:43.273Z,71.50
2022-08-29T16:35:10.969Z,70.50
2022-08-29T16:37:38.015Z,69.80
2022-08-29T16:40:09.159Z,70.10
2022-08-29T16:42:39.462Z,69.20
2022-08-29T16:45:08.479Z,70.00
2022-08-29T16:47:35.609Z,70.60
2022-08-29T16:50:03.992Z,70.10
2022-08-29T16:52:30.884Z,69.20
2022-08-29T16:54:58.361Z,69.40
2022-08-29T16:57:25.655Z,70.50
2022-08-29T16:59:55.121Z,70.30
2022-08-29T17:02:22.560Z,70.20
2022-08-29T17:04:52.342Z,71.20
2022-08-29T17:07:21.100Z,70.50
2022-08-29T17:09:48.094Z,72.00
2022-08-29T17:12:18.644Z,71.70
2022-08-29T17:14:52.221Z,72.40
2022-08-29T17:17:21.915Z,71.20
2022-08-29T17:19:49.163Z,71.30
2022-08-29T17:22:19.001Z,71.30
2022-08-29T17:24:48.274Z,71.40
2022-08-29T17:27:21.125Z,72.00
2022-08-29T17:29:49.760Z,72.70
2022-08-29T17:32:20.208Z,72.40
2022-08-29T17:34:48.584Z,72.00
2022-08-29T17:37:15.495Z,72.10
2022-08-29T17:39:46.282Z,71.90
2022-08-29T17:42:14.267Z,72.60
2022-08-29T17:44:41.135Z,72.40
2022-08-29T17:47:08.186Z,72.70
2022-08-29T17:49:35.265Z,72.90
2022-08-29T17:52:05.809Z,73.10
2022-08-29T17:54:32.934Z,73.50
2022-08-29T17:57:00.861Z,73.80
2022-08-29T17:59:33.053Z,72.60
2022-08-29T18:02:03.233Z,73.80
2022-08-29T18:04:31.054Z,73.80
2022-08-29T18:06:58.867Z,75.40
2022-08-29T18:09:26.276Z,74.30
2022-08-29T18:11:57.421Z,74.40
2022-08-29T18:14:27.805Z,74.60
2022-08-29T18:16:56.026Z,74.80
2022-08-29T18:19:23.887Z,74.30
2022-08-29T18:21:53.448Z,74.60
2022-08-29T18:24:21.219Z,74.20
2022-08-29T18:26:48.888Z,73.80
2022-08-29T18:29:16.996Z,74.20
2022-08-29T18:31:44.437Z,74.30
2022-08-29T18:34:12.176Z,73.80
2022-08-29T18:36:43.370Z,74.10
2022-08-29T18:39:12.091Z,74.10
2022-08-29T18:41:39.183Z,74.40
2022-08-29T18:44:06.332Z,75.10
2022-08-29T18:46:33.947Z,75.10
2022-08-29T18:49:04.683Z,75.50
2022-08-29T18:51:33.417Z,75.50
2022-08-29T18:54:00.474Z,75.40
2022-08-29T18:59:09.810Z,75.50
2022-08-29T19:01:37.122Z,75.70
2022-08-29T19:04:04.157Z,76.00
2022-08-29T19:06:31.590Z,77.10
2022-08-29T19:08:58.480Z,77.30
2022-08-29T19:11:28.495Z,77.10
2022-08-29T19:13:55.331Z,77.50
2022-08-29T19:16:23.048Z,77.80
2022-08-29T19:18:50.395Z,77.20
2022-08-29T19:21:17.338Z,77.70
2022-08-29T19:23:47.290Z,79.50
2022-08-29T19:26:29.096Z,80.20
2022-08-29T19:28:59.401Z,80.30
2022-08-29T19:31:27.830Z,80.70
2022-08-29T19:33:55.352Z,81.20
2022-08-29T19:36:23.599Z,81.90
2022-08-29T19:38:50.950Z,82.40
2022-08-29T19:41:17.869Z,83.30
2022-08-29T19:43:45.312Z,83.80
2022-08-29T19:46:20.052Z,84.20
2022-08-29T19:48:51.349Z,84.50
2022-08-29T19:51:21.268Z,84.90
2022-08-29T19:53:49.018Z,84.50
2022-08-29T19:56:16.918Z,84.80
2022-08-29T19:58:44.396Z,84.80
2022-08-29T20:01:11.431Z,84.70
2022-08-29T20:03:41.363Z,85.10
2022-08-29T20:06:09.163Z,84.30
2022-08-29T20:08:41.929Z,85.00
2022-08-29T20:11:19.377Z,85.30
2022-08-29T20:13:50.621Z,85.80
2022-08-29T20:16:21.385Z,85.40
2022-08-29T20:18:48.672Z,85.00
2022-08-29T20:21:17.029Z,85.00
2022-08-29T20:23:49.469Z,85.20
2022-08-29T20:26:18.753Z,85.70
2022-08-29T20:28:45.653Z,85.70
2022-08-29T20:31:13.055Z,85.50
2022-08-29T20:33:41.433Z,85.60
2022-08-29T20:36:27.122Z,85.70
2022-08-29T20:38:54.484Z,85.60
2022-08-29T20:41:21.907Z,85.70
2022-08-29T20:43:48.855Z,85.70
2022-08-29T20:46:19.505Z,87.10
2022-08-29T20:48:46.419Z,87.30
2022-08-29T20:51:13.523Z,86.90
2022-08-29T20:53:40.805Z,86.60
2022-08-29T20:56:08.535Z,86.60
2022-08-29T20:58:36.063Z,86.50
2022-08-29T21:01:04.942Z,87.30
2022-08-29T21:03:50.675Z,86.90
2022-08-29T21:06:21.376Z,87.10
2022-08-29T21:08:49.113Z,87.00
2022-08-29T21:11:16.370Z,87.60
2022-08-29T21:13:43.689Z,87.70
2022-08-29T21:16:11.287Z,87.90
2022-08-29T21:18:38.415Z,88.50
2022-08-29T21:21:05.693Z,88.50
2022-08-29T21:23:32.603Z,88.80
2022-08-29T21:26:00.953Z,88.90
2022-08-29T21:28:29.495Z,88.40
2022-08-29T21:30:58.077Z,88.40
2022-08-29T21:33:25.110Z,88.80
2022-08-29T21:35:51.913Z,89.50
2022-08-29T21:38:18.726Z,88.90
2022-08-29T21:40:50.772Z,88.80
2022-08-29T21:43:21.431Z,88.80
2022-08-29T21:45:48.547Z,88.70
2022-08-29T21:48:16.660Z,88.40
2022-08-29T21:50:43.517Z,88.80
2022-08-29T21:53:14.868Z,89.40
2022-08-29T21:55:42.004Z,89.60
2022-08-29T21:58:08.805Z,89.10
2022-08-29T22:00:40.560Z,88.90
2022-08-29T22:03:09.169Z,88.80
2022-08-29T22:05:36.074Z,88.60
2022-08-29T22:08:06.961Z,88.50
2022-08-29T22:10:36.532Z,89.00
2022-08-29T22:13:05.658Z,88.10
2022-08-29T22:15:51.234Z,88.30
2022-08-29T22:18:19.344Z,87.80
2022-08-29T22:20:47.932Z,88.20
2022-08-29T22:23:20.473Z,88.10
2022-08-29T22:25:47.431Z,87.70
2022-08-29T22:28:14.242Z,87.20
2022-08-29T22:30:40.966Z,87.20
2022-08-29T22:33:08.185Z,87.60
2022-08-29T22:35:35.574Z,88.30
2022-08-29T22:38:02.961Z,87.70
2022-08-29T22:40:30.057Z,89.00
2022-08-29T22:42:57.392Z,89.80
2022-08-29T22:45:24.442Z,89.70
2022-08-29T22:47:51.489Z,89.80
2022-08-29T22:50:24.486Z,89.80
2022-08-29T22:52:54.881Z,90.10
2022-08-29T22:57:51.508Z,89.90
2022-08-29T23:00:22.548Z,89.10
2022-08-29T23:02:50.411Z,89.50
2022-08-29T23:05:18.263Z,89.40
2022-08-29T23:07:45.857Z,89.60
2022-08-29T23:10:14.158Z,90.40
2022-08-29T23:12:41.090Z,89.80
2022-08-29T23:15:13.904Z,89.10
2022-08-29T23:17:41.321Z,89.00
2022-08-29T23:20:11.377Z,88.90
2022-08-29T23:22:38.833Z,88.90
2022-08-29T23:25:08.206Z,88.90
2022-08-29T23:27:37.954Z,89.10
2022-08-29T23:30:08.109Z,89.30
2022-08-29T23:32:34.966Z,89.50
2022-08-29T23:35:01.883Z,89.60
2022-08-29T23:37:28.682Z,90.50
2022-08-29T23:39:55.503Z,90.20
2022-08-29T23:42:22.298Z,90.40
2022-08-29T23:44:49.133Z,90.40
2022-08-29T23:47:17.098Z,90.50
2022-08-29T23:49:44.492Z,90.70
2022-08-29T23:52:11.299Z,90.70
2022-08-29T23:54:38.092Z,90.80
2022-08-29T23:57:05.114Z,91.00
2022-08-29T23:59:51.907Z,90.90
